sensor_id;sensor_type;location;lat;lon;timestamp;temperature;humidity
68251;DHT22;55066;51.560;4.642;2023-04-16T00:02:09;9.58;86.91
68251;DHT22;55066;51.560;4.642;2023-04-16T00:04:35;9.78;86.77
68251;DHT22;55066;51.560;4.642;2023-04-16T00:07:00;9.66;86.77
68251;DHT22;55066;51.560;4.642;2023-04-16T00:09:25;9.41;88.50
68251;DHT22;55066;51.560;4.642;2023-04-16T00:11:51;9.42;88.42
68251;DHT22;55066;51.560;4.642;2023-04-16T00:14:16;9.38;89.28
68251;DHT22;55066;51.560;4.642;2023-04-16T00:16:42;9.38;88.78
68251;DHT22;55066;51.560;4.642;2023-04-16T00:19:07;9.38;89.22
68251;DHT22;55066;51.560;4.642;2023-04-16T00:21:32;9.28;89.06
68251;DHT22;55066;51.560;4.642;2023-04-16T00:23:58;9.16;91.09
68251;DHT22;55066;51.560;4.642;2023-04-16T00:26:25;9.26;89.10
68251;DHT22;55066;51.560;4.642;2023-04-16T00:28:52;9.35;89.11
68251;DHT22;55066;51.560;4.642;2023-04-16T00:31:17;9.37;89.05
68251;DHT22;55066;51.560;4.642;2023-04-16T00:33:42;9.35;89.64
68251;DHT22;55066;51.560;4.642;2023-04-16T00:36:08;9.44;88.37
68251;DHT22;55066;51.560;4.642;2023-04-16T00:38:33;9.24;91.13
68251;DHT22;55066;51.560;4.642;2023-04-16T00:40:59;9.39;87.93
68251;DHT22;55066;51.560;4.642;2023-04-16T00:43:26;9.49;87.28
68251;DHT22;55066;51.560;4.642;2023-04-16T00:45:52;9.27;89.70
68251;DHT22;55066;51.560;4.642;2023-04-16T00:48:20;9.54;89.29
68251;DHT22;55066;51.560;4.642;2023-04-16T00:50:47;9.30;90.49
68251;DHT22;55066;51.560;4.642;2023-04-16T00:53:13;9.34;90.85
68251;DHT22;55066;51.560;4.642;2023-04-16T00:55:40;9.31;92.38
68251;DHT22;55066;51.560;4.642;2023-04-16T00:58:06;9.28;90.87
68251;DHT22;55066;51.560;4.642;2023-04-16T01:00:32;9.41;88.69
68251;DHT22;55066;51.560;4.642;2023-04-16T01:02:58;9.31;88.87
68251;DHT22;55066;51.560;4.642;2023-04-16T01:05:26;9.32;90.93
68251;DHT22;55066;51.560;4.642;2023-04-16T01:07:52;9.45;90.27
68251;DHT22;55066;51.560;4.642;2023-04-16T01:10:18;9.28;90.39
68251;DHT22;55066;51.560;4.642;2023-04-16T01:12:43;9.62;88.04
68251;DHT22;55066;51.560;4.642;2023-04-16T01:15:11;9.39;89.47
68251;DHT22;55066;51.560;4.642;2023-04-16T01:17:37;9.45;89.73
68251;DHT22;55066;51.560;4.642;2023-04-16T01:20:05;9.26;92.26
68251;DHT22;55066;51.560;4.642;2023-04-16T01:22:30;9.32;89.29
68251;DHT22;55066;51.560;4.642;2023-04-16T01:24:56;9.38;90.28
68251;DHT22;55066;51.560;4.642;2023-04-16T01:27:23;9.24;94.46
68251;DHT22;55066;51.560;4.642;2023-04-16T01:29:51;9.30;91.74
68251;DHT22;55066;51.560;4.642;2023-04-16T01:32:22;9.41;89.85
68251;DHT22;55066;51.560;4.642;2023-04-16T01:34:50;9.17;93.97
68251;DHT22;55066;51.560;4.642;2023-04-16T01:37:16;9.28;90.34
68251;DHT22;55066;51.560;4.642;2023-04-16T01:39:41;9.07;94.43
68251;DHT22;55066;51.560;4.642;2023-04-16T01:42:08;9.20;89.76
68251;DHT22;55066;51.560;4.642;2023-04-16T01:44:35;8.86;93.59
68251;DHT22;55066;51.560;4.642;2023-04-16T01:47:00;8.77;93.91
68251;DHT22;55066;51.560;4.642;2023-04-16T01:49:26;8.81;95.25
68251;DHT22;55066;51.560;4.642;2023-04-16T01:51:51;8.84;96.06
68251;DHT22;55066;51.560;4.642;2023-04-16T01:54:18;8.93;92.45
68251;DHT22;55066;51.560;4.642;2023-04-16T01:56:43;8.75;96.91
68251;DHT22;55066;51.560;4.642;2023-04-16T01:59:09;9.01;91.12
68251;DHT22;55066;51.560;4.642;2023-04-16T02:01:38;8.73;95.78
68251;DHT22;55066;51.560;4.642;2023-04-16T02:04:05;9.04;93.50
68251;DHT22;55066;51.560;4.642;2023-04-16T02:06:34;8.86;93.02
68251;DHT22;55066;51.560;4.642;2023-04-16T02:09:00;9.00;91.41
68251;DHT22;55066;51.560;4.642;2023-04-16T02:11:26;8.94;92.49
68251;DHT22;55066;51.560;4.642;2023-04-16T02:13:52;8.90;93.51
68251;DHT22;55066;51.560;4.642;2023-04-16T02:16:18;8.80;94.83
68251;DHT22;55066;51.560;4.642;2023-04-16T02:19:08;8.70;97.20
68251;DHT22;55066;51.560;4.642;2023-04-16T02:21:35;8.69;97.07
68251;DHT22;55066;51.560;4.642;2023-04-16T02:24:01;8.96;90.78
68251;DHT22;55066;51.560;4.642;2023-04-16T02:26:29;8.80;91.58
68251;DHT22;55066;51.560;4.642;2023-04-16T02:28:58;8.87;91.19
68251;DHT22;55066;51.560;4.642;2023-04-16T02:31:31;8.72;91.27
68251;DHT22;55066;51.560;4.642;2023-04-16T02:33:57;8.56;92.83
68251;DHT22;55066;51.560;4.642;2023-04-16T02:36:22;8.66;91.03
68251;DHT22;55066;51.560;4.642;2023-04-16T02:38:48;8.70;91.38
68251;DHT22;55066;51.560;4.642;2023-04-16T02:41:15;8.52;99.12
68251;DHT22;55066;51.560;4.642;2023-04-16T02:43:41;8.51;96.19
68251;DHT22;55066;51.560;4.642;2023-04-16T02:46:07;8.53;91.82
68251;DHT22;55066;51.560;4.642;2023-04-16T02:48:34;8.56;93.19
68251;DHT22;55066;51.560;4.642;2023-04-16T02:51:00;8.40;95.97
68251;DHT22;55066;51.560;4.642;2023-04-16T02:53:25;8.35;99.99
68251;DHT22;55066;51.560;4.642;2023-04-16T02:55:51;8.63;93.55
68251;DHT22;55066;51.560;4.642;2023-04-16T02:58:18;8.49;97.71
68251;DHT22;55066;51.560;4.642;2023-04-16T03:00:47;8.45;96.46
68251;DHT22;55066;51.560;4.642;2023-04-16T03:03:12;8.58;93.56
68251;DHT22;55066;51.560;4.642;2023-04-16T03:05:39;8.32;99.78
68251;DHT22;55066;51.560;4.642;2023-04-16T03:08:06;8.37;92.95
68251;DHT22;55066;51.560;4.642;2023-04-16T03:10:33;8.65;94.85
68251;DHT22;55066;51.560;4.642;2023-04-16T03:13:00;8.62;93.67
68251;DHT22;55066;51.560;4.642;2023-04-16T03:15:25;8.44;97.84
68251;DHT22;55066;51.560;4.642;2023-04-16T03:17:52;8.34;97.96
68251;DHT22;55066;51.560;4.642;2023-04-16T03:20:18;8.65;93.85
68251;DHT22;55066;51.560;4.642;2023-04-16T03:22:45;8.65;93.66
68251;DHT22;55066;51.560;4.642;2023-04-16T03:25:12;8.56;94.41
68251;DHT22;55066;51.560;4.642;2023-04-16T03:27:38;8.55;95.91
68251;DHT22;55066;51.560;4.642;2023-04-16T03:30:05;8.63;92.59
68251;DHT22;55066;51.560;4.642;2023-04-16T03:32:34;8.63;94.95
68251;DHT22;55066;51.560;4.642;2023-04-16T03:35:05;8.45;95.59
68251;DHT22;55066;51.560;4.642;2023-04-16T03:37:32;8.53;96.69
68251;DHT22;55066;51.560;4.642;2023-04-16T03:39:58;8.34;99.07
68251;DHT22;55066;51.560;4.642;2023-04-16T03:42:23;8.52;96.27
68251;DHT22;55066;51.560;4.642;2023-04-16T03:44:49;8.28;99.99
68251;DHT22;55066;51.560;4.642;2023-04-16T03:47:16;8.07;99.99
68251;DHT22;55066;51.560;4.642;2023-04-16T03:49:42;8.34;96.74
68251;DHT22;55066;51.560;4.642;2023-04-16T03:52:08;8.27;99.28
68251;DHT22;55066;51.560;4.642;2023-04-16T03:54:34;8.34;95.08
68251;DHT22;55066;51.560;4.642;2023-04-16T03:57:11;8.51;95.64
68251;DHT22;55066;51.560;4.642;2023-04-16T03:59:37;8.61;94.50
68251;DHT22;55066;51.560;4.642;2023-04-16T04:02:05;8.51;93.86
68251;DHT22;55066;51.560;4.642;2023-04-16T04:04:32;8.56;94.07
68251;DHT22;55066;51.560;4.642;2023-04-16T04:06:57;8.59;94.93
68251;DHT22;55066;51.560;4.642;2023-04-16T04:09:24;8.40;96.50
68251;DHT22;55066;51.560;4.642;2023-04-16T04:11:56;8.20;98.14
68251;DHT22;55066;51.560;4.642;2023-04-16T04:14:22;8.44;94.04
68251;DHT22;55066;51.560;4.642;2023-04-16T04:16:48;8.37;97.40
68251;DHT22;55066;51.560;4.642;2023-04-16T04:19:17;8.31;96.88
68251;DHT22;55066;51.560;4.642;2023-04-16T04:21:44;8.14;97.26
68251;DHT22;55066;51.560;4.642;2023-04-16T04:24:10;8.28;96.27
68251;DHT22;55066;51.560;4.642;2023-04-16T04:26:39;8.52;94.73
68251;DHT22;55066;51.560;4.642;2023-04-16T04:29:05;8.40;98.23
68251;DHT22;55066;51.560;4.642;2023-04-16T04:31:31;8.25;97.73
68251;DHT22;55066;51.560;4.642;2023-04-16T04:33:56;8.28;95.11
68251;DHT22;55066;51.560;4.642;2023-04-16T04:36:22;8.40;94.67
68251;DHT22;55066;51.560;4.642;2023-04-16T04:38:48;8.35;97.98
68251;DHT22;55066;51.560;4.642;2023-04-16T04:41:15;8.21;99.15
68251;DHT22;55066;51.560;4.642;2023-04-16T04:43:41;8.05;99.41
68251;DHT22;55066;51.560;4.642;2023-04-16T04:46:06;8.08;96.01
68251;DHT22;55066;51.560;4.642;2023-04-16T04:48:32;8.04;98.39
68251;DHT22;55066;51.560;4.642;2023-04-16T04:50:58;8.08;99.99
68251;DHT22;55066;51.560;4.642;2023-04-16T04:53:24;7.96;98.00
68251;DHT22;55066;51.560;4.642;2023-04-16T04:55:50;8.13;98.00
68251;DHT22;55066;51.560;4.642;2023-04-16T04:58:15;7.97;99.59
68251;DHT22;55066;51.560;4.642;2023-04-16T05:00:42;8.03;99.99
68251;DHT22;55066;51.560;4.642;2023-04-16T05:03:09;7.98;99.68
68251;DHT22;55066;51.560;4.642;2023-04-16T05:05:36;8.11;96.34
68251;DHT22;55066;51.560;4.642;2023-04-16T05:08:02;8.17;99.99
68251;DHT22;55066;51.560;4.642;2023-04-16T05:10:28;8.03;99.99
68251;DHT22;55066;51.560;4.642;2023-04-16T05:12:53;8.10;97.67
68251;DHT22;55066;51.560;4.642;2023-04-16T05:15:18;7.90;99.99
68251;DHT22;55066;51.560;4.642;2023-04-16T05:17:44;8.25;96.58
68251;DHT22;55066;51.560;4.642;2023-04-16T05:20:10;8.15;99.99
68251;DHT22;55066;51.560;4.642;2023-04-16T05:22:35;8.24;96.73
68251;DHT22;55066;51.560;4.642;2023-04-16T05:25:01;8.23;99.07
68251;DHT22;55066;51.560;4.642;2023-04-16T05:27:26;8.37;95.63
68251;DHT22;55066;51.560;4.642;2023-04-16T05:29:52;8.17;98.91
68251;DHT22;55066;51.560;4.642;2023-04-16T05:32:17;8.24;93.88
68251;DHT22;55066;51.560;4.642;2023-04-16T05:34:43;8.31;97.74
68251;DHT22;55066;51.560;4.642;2023-04-16T05:37:08;8.24;99.32
68251;DHT22;55066;51.560;4.642;2023-04-16T05:39:34;8.11;99.99
68251;DHT22;55066;51.560;4.642;2023-04-16T05:42:00;8.14;99.99
68251;DHT22;55066;51.560;4.642;2023-04-16T05:44:27;8.25;97.14
68251;DHT22;55066;51.560;4.642;2023-04-16T05:46:53;8.41;97.84
68251;DHT22;55066;51.560;4.642;2023-04-16T05:49:18;8.30;96.43
68251;DHT22;55066;51.560;4.642;2023-04-16T05:51:47;8.11;99.00
68251;DHT22;55066;51.560;4.642;2023-04-16T05:54:14;8.08;93.85
68251;DHT22;55066;51.560;4.642;2023-04-16T05:56:39;8.30;94.38
68251;DHT22;55066;51.560;4.642;2023-04-16T05:59:09;8.14;99.31
68251;DHT22;55066;51.560;4.642;2023-04-16T06:01:34;8.18;99.99
68251;DHT22;55066;51.560;4.642;2023-04-16T06:04:03;8.10;99.99
68251;DHT22;55066;51.560;4.642;2023-04-16T06:06:29;8.38;98.04
68251;DHT22;55066;51.560;4.642;2023-04-16T06:08:55;8.27;96.85
68251;DHT22;55066;51.560;4.642;2023-04-16T06:11:22;8.34;99.15
68251;DHT22;55066;51.560;4.642;2023-04-16T06:13:47;8.08;98.77
68251;DHT22;55066;51.560;4.642;2023-04-16T06:16:13;8.14;96.39
68251;DHT22;55066;51.560;4.642;2023-04-16T06:18:38;8.35;97.88
68251;DHT22;55066;51.560;4.642;2023-04-16T06:21:05;8.37;95.73
68251;DHT22;55066;51.560;4.642;2023-04-16T06:23:30;8.30;99.99
68251;DHT22;55066;51.560;4.642;2023-04-16T06:25:56;8.25;99.63
68251;DHT22;55066;51.560;4.642;2023-04-16T06:28:21;8.27;99.99
68251;DHT22;55066;51.560;4.642;2023-04-16T06:30:47;8.63;93.30
68251;DHT22;55066;51.560;4.642;2023-04-16T06:33:12;8.51;97.37
68251;DHT22;55066;51.560;4.642;2023-04-16T06:35:40;8.44;95.50
68251;DHT22;55066;51.560;4.642;2023-04-16T06:38:11;8.53;97.82
68251;DHT22;55066;51.560;4.642;2023-04-16T06:40:39;8.38;95.24
68251;DHT22;55066;51.560;4.642;2023-04-16T06:43:10;8.62;94.57
68251;DHT22;55066;51.560;4.642;2023-04-16T06:45:35;8.45;98.95
68251;DHT22;55066;51.560;4.642;2023-04-16T06:48:02;8.48;93.81
68251;DHT22;55066;51.560;4.642;2023-04-16T06:50:29;8.37;97.75
68251;DHT22;55066;51.560;4.642;2023-04-16T06:52:55;8.38;97.96
68251;DHT22;55066;51.560;4.642;2023-04-16T06:55:21;8.41;99.99
68251;DHT22;55066;51.560;4.642;2023-04-16T06:57:47;8.37;99.99
68251;DHT22;55066;51.560;4.642;2023-04-16T07:00:12;8.56;96.32
68251;DHT22;55066;51.560;4.642;2023-04-16T07:02:38;8.55;96.78
68251;DHT22;55066;51.560;4.642;2023-04-16T07:05:04;8.46;98.21
68251;DHT22;55066;51.560;4.642;2023-04-16T07:07:30;8.51;96.32
68251;DHT22;55066;51.560;4.642;2023-04-16T07:09:58;8.49;99.88
68251;DHT22;55066;51.560;4.642;2023-04-16T07:12:25;8.37;99.99
68251;DHT22;55066;51.560;4.642;2023-04-16T07:14:51;8.45;98.60
68251;DHT22;55066;51.560;4.642;2023-04-16T07:17:20;8.53;93.75
68251;DHT22;55066;51.560;4.642;2023-04-16T07:19:45;8.59;94.88
68251;DHT22;55066;51.560;4.642;2023-04-16T07:22:11;8.44;99.47
68251;DHT22;55066;51.560;4.642;2023-04-16T07:24:36;8.46;94.06
68251;DHT22;55066;51.560;4.642;2023-04-16T07:27:02;8.52;95.30
68251;DHT22;55066;51.560;4.642;2023-04-16T07:29:28;8.52;99.99
68251;DHT22;55066;51.560;4.642;2023-04-16T07:31:57;8.53;96.56
68251;DHT22;55066;51.560;4.642;2023-04-16T07:34:23;8.62;98.11
68251;DHT22;55066;51.560;4.642;2023-04-16T07:36:58;8.37;99.99
68251;DHT22;55066;51.560;4.642;2023-04-16T07:39:24;8.48;99.99
68251;DHT22;55066;51.560;4.642;2023-04-16T07:41:51;8.45;99.99
68251;DHT22;55066;51.560;4.642;2023-04-16T07:44:18;8.45;97.52
68251;DHT22;55066;51.560;4.642;2023-04-16T07:46:43;8.49;99.81
68251;DHT22;55066;51.560;4.642;2023-04-16T07:49:08;8.45;99.99
68251;DHT22;55066;51.560;4.642;2023-04-16T07:51:34;8.55;98.97
68251;DHT22;55066;51.560;4.642;2023-04-16T07:54:02;8.70;98.76
68251;DHT22;55066;51.560;4.642;2023-04-16T07:56:29;8.55;99.99
68251;DHT22;55066;51.560;4.642;2023-04-16T07:58:56;8.55;98.28
68251;DHT22;55066;51.560;4.642;2023-04-16T08:01:22;8.68;98.95
68251;DHT22;55066;51.560;4.642;2023-04-16T08:03:49;8.73;97.24
68251;DHT22;55066;51.560;4.642;2023-04-16T08:06:16;8.69;99.60
68251;DHT22;55066;51.560;4.642;2023-04-16T08:08:41;8.86;96.29
68251;DHT22;55066;51.560;4.642;2023-04-16T08:11:10;8.65;99.26
68251;DHT22;55066;51.560;4.642;2023-04-16T08:13:35;8.52;99.99
68251;DHT22;55066;51.560;4.642;2023-04-16T08:16:01;8.52;98.20
68251;DHT22;55066;51.560;4.642;2023-04-16T08:18:27;8.65;99.06
68251;DHT22;55066;51.560;4.642;2023-04-16T08:20:53;8.83;96.77
68251;DHT22;55066;51.560;4.642;2023-04-16T08:23:19;8.75;94.11
68251;DHT22;55066;51.560;4.642;2023-04-16T08:25:47;8.83;99.99
68251;DHT22;55066;51.560;4.642;2023-04-16T08:28:14;8.90;98.75
68251;DHT22;55066;51.560;4.642;2023-04-16T08:30:40;8.77;99.99
68251;DHT22;55066;51.560;4.642;2023-04-16T08:33:06;8.77;96.83
68251;DHT22;55066;51.560;4.642;2023-04-16T08:35:32;8.87;93.25
68251;DHT22;55066;51.560;4.642;2023-04-16T08:37:58;8.99;98.38
68251;DHT22;55066;51.560;4.642;2023-04-16T08:40:27;8.91;99.99
68251;DHT22;55066;51.560;4.642;2023-04-16T08:42:58;8.96;95.31
68251;DHT22;55066;51.560;4.642;2023-04-16T08:45:31;9.04;97.14
68251;DHT22;55066;51.560;4.642;2023-04-16T08:47:58;8.96;99.99
68251;DHT22;55066;51.560;4.642;2023-04-16T08:50:28;8.99;96.72
68251;DHT22;55066;51.560;4.642;2023-04-16T08:52:58;9.18;96.59
68251;DHT22;55066;51.560;4.642;2023-04-16T08:55:49;9.26;97.73
68251;DHT22;55066;51.560;4.642;2023-04-16T08:58:21;9.31;96.76
68251;DHT22;55066;51.560;4.642;2023-04-16T09:00:50;9.23;95.82
68251;DHT22;55066;51.560;4.642;2023-04-16T09:03:21;9.24;94.36
68251;DHT22;55066;51.560;4.642;2023-04-16T09:05:48;9.37;96.24
68251;DHT22;55066;51.560;4.642;2023-04-16T09:08:16;9.41;95.30
68251;DHT22;55066;51.560;4.642;2023-04-16T09:10:42;9.38;97.06
68251;DHT22;55066;51.560;4.642;2023-04-16T09:13:09;9.32;98.01
68251;DHT22;55066;51.560;4.642;2023-04-16T09:15:38;9.31;99.69
68251;DHT22;55066;51.560;4.642;2023-04-16T09:18:05;9.46;94.59
68251;DHT22;55066;51.560;4.642;2023-04-16T09:20:30;9.63;93.41
68251;DHT22;55066;51.560;4.642;2023-04-16T09:22:56;9.66;90.73
68251;DHT22;55066;51.560;4.642;2023-04-16T09:25:21;9.54;96.41
68251;DHT22;55066;51.560;4.642;2023-04-16T09:27:51;9.62;97.64
68251;DHT22;55066;51.560;4.642;2023-04-16T09:30:22;9.62;99.43
68251;DHT22;55066;51.560;4.642;2023-04-16T09:32:50;9.52;99.86
68251;DHT22;55066;51.560;4.642;2023-04-16T09:35:18;9.69;98.46
68251;DHT22;55066;51.560;4.642;2023-04-16T09:37:54;9.89;93.90
68251;DHT22;55066;51.560;4.642;2023-04-16T09:40:28;9.93;94.06
68251;DHT22;55066;51.560;4.642;2023-04-16T09:42:58;9.99;94.97
68251;DHT22;55066;51.560;4.642;2023-04-16T09:45:29;10.06;92.73
68251;DHT22;55066;51.560;4.642;2023-04-16T09:48:01;9.96;96.89
68251;DHT22;55066;51.560;4.642;2023-04-16T09:50:28;10.07;91.78
68251;DHT22;55066;51.560;4.642;2023-04-16T09:53:07;10.06;94.04
68251;DHT22;55066;51.560;4.642;2023-04-16T09:55:32;9.93;97.39
68251;DHT22;55066;51.560;4.642;2023-04-16T09:57:59;10.02;95.71
68251;DHT22;55066;51.560;4.642;2023-04-16T10:00:29;10.24;90.52
68251;DHT22;55066;51.560;4.642;2023-04-16T10:03:11;10.20;93.14
68251;DHT22;55066;51.560;4.642;2023-04-16T10:05:37;10.14;97.24
68251;DHT22;55066;51.560;4.642;2023-04-16T10:08:10;10.07;96.92
68251;DHT22;55066;51.560;4.642;2023-04-16T10:10:37;9.96;98.24
68251;DHT22;55066;51.560;4.642;2023-04-16T10:13:03;10.09;93.16
68251;DHT22;55066;51.560;4.642;2023-04-16T10:15:32;10.09;93.66
68251;DHT22;55066;51.560;4.642;2023-04-16T10:17:58;9.96;97.17
68251;DHT22;55066;51.560;4.642;2023-04-16T10:20:26;9.97;99.93
68251;DHT22;55066;51.560;4.642;2023-04-16T10:22:55;10.16;96.40
68251;DHT22;55066;51.560;4.642;2023-04-16T10:25:21;10.21;92.84
68251;DHT22;55066;51.560;4.642;2023-04-16T10:27:47;10.18;95.88
68251;DHT22;55066;51.560;4.642;2023-04-16T10:30:14;10.24;94.60
68251;DHT22;55066;51.560;4.642;2023-04-16T10:32:41;10.25;95.87
68251;DHT22;55066;51.560;4.642;2023-04-16T10:35:07;10.27;94.04
68251;DHT22;55066;51.560;4.642;2023-04-16T10:37:32;10.24;97.51
68251;DHT22;55066;51.560;4.642;2023-04-16T10:39:58;10.38;92.06
68251;DHT22;55066;51.560;4.642;2023-04-16T10:42:24;10.42;91.30
68251;DHT22;55066;51.560;4.642;2023-04-16T10:44:50;10.45;93.57
68251;DHT22;55066;51.560;4.642;2023-04-16T10:47:17;10.38;95.02
68251;DHT22;55066;51.560;4.642;2023-04-16T10:49:46;10.33;95.78
68251;DHT22;55066;51.560;4.642;2023-04-16T10:52:14;10.45;91.40
68251;DHT22;55066;51.560;4.642;2023-04-16T10:54:45;10.37;92.68
68251;DHT22;55066;51.560;4.642;2023-04-16T10:57:16;10.58;91.46
68251;DHT22;55066;51.560;4.642;2023-04-16T10:59:44;10.49;91.94
68251;DHT22;55066;51.560;4.642;2023-04-16T11:02:17;10.52;92.77
68251;DHT22;55066;51.560;4.642;2023-04-16T11:04:44;10.52;93.18
68251;DHT22;55066;51.560;4.642;2023-04-16T11:14:58;10.44;97.00
68251;DHT22;55066;51.560;4.642;2023-04-16T11:17:27;10.58;94.72
68251;DHT22;55066;51.560;4.642;2023-04-16T11:19:53;10.55;96.48
68251;DHT22;55066;51.560;4.642;2023-04-16T11:22:18;10.72;92.00
68251;DHT22;55066;51.560;4.642;2023-04-16T11:24:45;10.58;95.12
68251;DHT22;55066;51.560;4.642;2023-04-16T11:27:14;10.66;97.34
68251;DHT22;55066;51.560;4.642;2023-04-16T11:29:41;10.73;94.71
68251;DHT22;55066;51.560;4.642;2023-04-16T11:32:19;10.71;92.73
68251;DHT22;55066;51.560;4.642;2023-04-16T11:34:45;10.64;95.31
68251;DHT22;55066;51.560;4.642;2023-04-16T11:37:12;10.68;95.15
68251;DHT22;55066;51.560;4.642;2023-04-16T11:39:50;10.72;92.81
68251;DHT22;55066;51.560;4.642;2023-04-16T11:42:21;10.79;93.22
68251;DHT22;55066;51.560;4.642;2023-04-16T11:44:55;10.68;93.74
68251;DHT22;55066;51.560;4.642;2023-04-16T11:47:22;10.71;93.53
68251;DHT22;55066;51.560;4.642;2023-04-16T11:49:49;10.55;94.29
68251;DHT22;55066;51.560;4.642;2023-04-16T11:52:29;10.82;92.04
68251;DHT22;55066;51.560;4.642;2023-04-16T11:54:57;10.78;94.00
68251;DHT22;55066;51.560;4.642;2023-04-16T11:57:29;10.83;94.25
68251;DHT22;55066;51.560;4.642;2023-04-16T11:59:56;10.68;95.06
68251;DHT22;55066;51.560;4.642;2023-04-16T12:02:58;10.69;96.82
68251;DHT22;55066;51.560;4.642;2023-04-16T12:05:37;10.86;95.84
68251;DHT22;55066;51.560;4.642;2023-04-16T12:08:09;10.99;95.21
68251;DHT22;55066;51.560;4.642;2023-04-16T12:10:51;10.82;95.37
68251;DHT22;55066;51.560;4.642;2023-04-16T12:13:17;10.97;93.30
68251;DHT22;55066;51.560;4.642;2023-04-16T12:15:54;11.09;92.82
68251;DHT22;55066;51.560;4.642;2023-04-16T12:18:24;11.22;90.59
68251;DHT22;55066;51.560;4.642;2023-04-16T12:20:53;11.38;91.72
68251;DHT22;55066;51.560;4.642;2023-04-16T12:23:26;11.30;93.09
68251;DHT22;55066;51.560;4.642;2023-04-16T12:25:54;11.07;96.14
68251;DHT22;55066;51.560;4.642;2023-04-16T12:28:30;11.26;93.99
68251;DHT22;55066;51.560;4.642;2023-04-16T12:30:56;11.16;93.88
68251;DHT22;55066;51.560;4.642;2023-04-16T12:33:22;11.26;94.06
68251;DHT22;55066;51.560;4.642;2023-04-16T12:35:48;11.26;89.42
68251;DHT22;55066;51.560;4.642;2023-04-16T12:38:14;11.03;96.18
68251;DHT22;55066;51.560;4.642;2023-04-16T12:40:40;11.26;89.91
68251;DHT22;55066;51.560;4.642;2023-04-16T12:43:06;11.48;88.50
68251;DHT22;55066;51.560;4.642;2023-04-16T12:45:36;11.40;91.36
68251;DHT22;55066;51.560;4.642;2023-04-16T12:48:03;11.33;91.17
68251;DHT22;55066;51.560;4.642;2023-04-16T12:50:31;11.38;92.73
68251;DHT22;55066;51.560;4.642;2023-04-16T12:52:57;11.64;92.03
68251;DHT22;55066;51.560;4.642;2023-04-16T12:55:23;11.67;91.99
68251;DHT22;55066;51.560;4.642;2023-04-16T12:57:49;11.67;91.59
68251;DHT22;55066;51.560;4.642;2023-04-16T13:00:17;11.77;90.86
68251;DHT22;55066;51.560;4.642;2023-04-16T13:02:44;11.54;92.92
68251;DHT22;55066;51.560;4.642;2023-04-16T13:05:10;12.03;92.75
68251;DHT22;55066;51.560;4.642;2023-04-16T13:07:35;12.24;90.57
68251;DHT22;55066;51.560;4.642;2023-04-16T13:10:01;12.37;90.84
68251;DHT22;55066;51.560;4.642;2023-04-16T13:12:27;12.40;87.58
68251;DHT22;55066;51.560;4.642;2023-04-16T13:14:53;12.55;87.19
68251;DHT22;55066;51.560;4.642;2023-04-16T13:17:19;12.68;88.39
68251;DHT22;55066;51.560;4.642;2023-04-16T13:19:45;12.67;86.20
68251;DHT22;55066;51.560;4.642;2023-04-16T13:22:10;12.51;90.98
68251;DHT22;55066;51.560;4.642;2023-04-16T13:24:36;12.82;87.98
68251;DHT22;55066;51.560;4.642;2023-04-16T13:27:02;12.48;89.91
68251;DHT22;55066;51.560;4.642;2023-04-16T13:29:28;12.53;88.03
68251;DHT22;55066;51.560;4.642;2023-04-16T13:31:55;12.33;91.67
68251;DHT22;55066;51.560;4.642;2023-04-16T13:34:20;12.20;89.00
68251;DHT22;55066;51.560;4.642;2023-04-16T13:36:46;12.16;89.69
68251;DHT22;55066;51.560;4.642;2023-04-16T13:39:11;11.99;91.13
68251;DHT22;55066;51.560;4.642;2023-04-16T13:41:38;11.61;93.90
68251;DHT22;55066;51.560;4.642;2023-04-16T13:44:04;11.71;93.65
68251;DHT22;55066;51.560;4.642;2023-04-16T13:46:31;11.62;92.14
68251;DHT22;55066;51.560;4.642;2023-04-16T13:48:57;11.85;93.02
68251;DHT22;55066;51.560;4.642;2023-04-16T13:51:22;11.74;92.54
68251;DHT22;55066;51.560;4.642;2023-04-16T13:53:48;11.54;94.49
68251;DHT22;55066;51.560;4.642;2023-04-16T13:56:15;11.67;94.03
68251;DHT22;55066;51.560;4.642;2023-04-16T13:58:42;11.93;92.66
68251;DHT22;55066;51.560;4.642;2023-04-16T14:01:08;12.27;89.04
68251;DHT22;55066;51.560;4.642;2023-04-16T14:03:35;12.62;87.96
68251;DHT22;55066;51.560;4.642;2023-04-16T14:06:02;12.77;88.96
68251;DHT22;55066;51.560;4.642;2023-04-16T14:08:28;12.32;89.70
68251;DHT22;55066;51.560;4.642;2023-04-16T14:10:55;12.09;91.81
68251;DHT22;55066;51.560;4.642;2023-04-16T14:13:21;11.54;94.31
68251;DHT22;55066;51.560;4.642;2023-04-16T14:15:46;11.96;90.71
68251;DHT22;55066;51.560;4.642;2023-04-16T14:18:13;11.62;93.99
68251;DHT22;55066;51.560;4.642;2023-04-16T14:20:42;11.90;90.86
68251;DHT22;55066;51.560;4.642;2023-04-16T14:23:07;11.90;92.85
68251;DHT22;55066;51.560;4.642;2023-04-16T14:25:33;12.22;91.07
68251;DHT22;55066;51.560;4.642;2023-04-16T14:27:59;11.99;92.74
68251;DHT22;55066;51.560;4.642;2023-04-16T14:30:25;11.83;93.29
68251;DHT22;55066;51.560;4.642;2023-04-16T14:32:51;12.02;91.08
68251;DHT22;55066;51.560;4.642;2023-04-16T14:35:17;12.07;91.76
68251;DHT22;55066;51.560;4.642;2023-04-16T14:37:43;12.17;91.95
68251;DHT22;55066;51.560;4.642;2023-04-16T14:40:09;12.15;91.89
68251;DHT22;55066;51.560;4.642;2023-04-16T14:42:35;11.95;91.63
68251;DHT22;55066;51.560;4.642;2023-04-16T14:45:02;12.43;89.36
68251;DHT22;55066;51.560;4.642;2023-04-16T14:47:32;12.54;89.08
68251;DHT22;55066;51.560;4.642;2023-04-16T14:50:00;11.90;93.18
68251;DHT22;55066;51.560;4.642;2023-04-16T14:52:26;12.02;91.32
68251;DHT22;55066;51.560;4.642;2023-04-16T14:54:53;11.95;92.94
68251;DHT22;55066;51.560;4.642;2023-04-16T14:57:19;12.22;90.08
68251;DHT22;55066;51.560;4.642;2023-04-16T14:59:45;12.26;89.41
68251;DHT22;55066;51.560;4.642;2023-04-16T15:02:11;12.19;90.95
68251;DHT22;55066;51.560;4.642;2023-04-16T15:04:36;12.47;88.97
68251;DHT22;55066;51.560;4.642;2023-04-16T15:07:02;12.43;89.43
68251;DHT22;55066;51.560;4.642;2023-04-16T15:09:29;12.19;91.60
68251;DHT22;55066;51.560;4.642;2023-04-16T15:11:56;12.13;90.81
68251;DHT22;55066;51.560;4.642;2023-04-16T15:14:22;12.19;91.07
68251;DHT22;55066;51.560;4.642;2023-04-16T15:16:48;12.37;90.37
68251;DHT22;55066;51.560;4.642;2023-04-16T15:19:13;12.45;88.93
68251;DHT22;55066;51.560;4.642;2023-04-16T15:21:39;12.41;89.75
68251;DHT22;55066;51.560;4.642;2023-04-16T15:24:07;12.47;90.35
68251;DHT22;55066;51.560;4.642;2023-04-16T15:26:34;12.71;88.17
68251;DHT22;55066;51.560;4.642;2023-04-16T15:29:00;12.44;89.40
68251;DHT22;55066;51.560;4.642;2023-04-16T15:31:26;12.29;91.41
68251;DHT22;55066;51.560;4.642;2023-04-16T15:33:52;12.03;92.17
68251;DHT22;55066;51.560;4.642;2023-04-16T15:36:20;11.95;93.37
68251;DHT22;55066;51.560;4.642;2023-04-16T15:38:47;12.05;92.11
68251;DHT22;55066;51.560;4.642;2023-04-16T15:41:14;12.00;91.78
68251;DHT22;55066;51.560;4.642;2023-04-16T15:43:40;11.67;93.26
68251;DHT22;55066;51.560;4.642;2023-04-16T15:46:06;11.77;92.71
68251;DHT22;55066;51.560;4.642;2023-04-16T15:48:33;11.78;92.98